createdAt,value
2023-02-11T00:01:09.217Z,5.63
2023-02-11T00:04:00.031Z,6.47
2023-02-11T00:06:48.658Z,6.43
2023-02-11T00:09:37.243Z,6.50
2023-02-11T00:12:26.000Z,5.55
2023-02-11T00:15:14.624Z,6.60
2023-02-11T00:18:03.206Z,5.90
2023-02-11T00:20:53.197Z,5.43
2023-02-11T00:23:41.952Z,6.05
2023-02-11T00:26:32.211Z,6.32
2023-02-11T00:29:20.851Z,5.13
2023-02-11T00:32:09.584Z,5.55
2023-02-11T00:34:58.228Z,5.43
2023-02-11T00:37:48.252Z,5.47
2023-02-11T00:40:37.040Z,5.68
2023-02-11T00:43:25.685Z,5.22
2023-02-11T00:46:15.098Z,4.78
2023-02-11T00:49:03.740Z,5.82
2023-02-11T00:51:52.401Z,4.90
2023-02-11T00:54:42.534Z,5.15
2023-02-11T00:57:31.129Z,5.70
2023-02-11T01:00:20.226Z,5.15
2023-02-11T01:03:08.906Z,5.38
2023-02-11T01:05:57.801Z,5.22
2023-02-11T01:08:46.769Z,4.70
2023-02-11T01:11:36.804Z,5.15
2023-02-11T01:14:25.531Z,4.82
2023-02-11T01:17:14.244Z,5.03
2023-02-11T01:20:04.902Z,5.05
2023-02-11T01:22:53.541Z,5.20
2023-02-11T01:25:42.129Z,5.03
2023-02-11T01:28:32.664Z,5.10
2023-02-11T01:31:21.393Z,5.85
2023-02-11T01:34:10.085Z,5.10
2023-02-11T01:36:59.828Z,5.45
2023-02-11T01:39:48.471Z,5.30
2023-02-11T01:42:37.174Z,5.38
2023-02-11T01:45:57.067Z,5.05
2023-02-11T01:48:47.828Z,5.70
2023-02-11T01:51:40.519Z,5.60
2023-02-11T01:54:49.786Z,5.43
2023-02-11T01:57:40.435Z,4.95
2023-02-11T02:00:32.781Z,5.03
2023-02-11T02:03:24.295Z,4.78
2023-02-11T02:06:18.018Z,4.82
2023-02-11T02:09:10.199Z,4.78
2023-02-11T02:11:58.822Z,4.80
2023-02-11T02:14:47.459Z,4.43
2023-02-11T02:17:43.049Z,4.50
2023-02-11T02:21:15.735Z,5.30
2023-02-11T02:24:24.558Z,4.85
2023-02-11T02:27:35.957Z,5.00
2023-02-11T02:30:50.282Z,4.95
2023-02-11T02:33:47.436Z,4.88
2023-02-11T02:36:39.895Z,4.57
2023-02-11T02:39:31.282Z,4.57
2023-02-11T02:42:20.354Z,4.50
2023-02-11T02:45:10.142Z,4.68
2023-02-11T02:47:58.795Z,5.07
2023-02-11T02:50:48.958Z,4.63
2023-02-11T02:53:46.664Z,5.03
2023-02-11T02:56:41.866Z,5.35
2023-02-11T02:59:40.985Z,4.85
2023-02-11T03:02:33.651Z,5.35
2023-02-11T03:05:26.692Z,4.32
2023-02-11T03:08:20.320Z,4.35
2023-02-11T03:11:10.223Z,3.58
2023-02-11T03:13:59.284Z,4.63
2023-02-11T03:16:49.531Z,3.05
2023-02-11T03:19:40.147Z,3.38
2023-02-11T03:22:34.156Z,3.00
2023-02-11T03:25:28.614Z,2.80
2023-02-11T03:28:19.933Z,2.60
2023-02-11T03:31:13.094Z,2.55
2023-02-11T03:34:05.520Z,2.75
2023-02-11T03:36:57.007Z,2.30
2023-02-11T03:39:49.440Z,1.90
2023-02-11T03:42:42.948Z,2.17
2023-02-11T03:45:32.058Z,2.25
2023-02-11T03:48:24.384Z,1.58
2023-02-11T03:51:14.210Z,1.83
2023-02-11T03:54:06.659Z,1.60
2023-02-11T03:56:57.859Z,1.20
2023-02-11T03:59:53.994Z,1.40
2023-02-11T04:02:43.282Z,1.50
2023-02-11T04:05:31.916Z,1.40
2023-02-11T04:08:20.552Z,1.45
2023-02-11T04:11:09.167Z,1.38
2023-02-11T04:13:57.755Z,1.08
2023-02-11T04:16:47.744Z,1.20
2023-02-11T04:19:36.403Z,1.25
2023-02-11T04:22:25.080Z,0.80
2023-02-11T04:25:13.706Z,1.20
2023-02-11T04:28:02.412Z,1.08
2023-02-11T04:30:51.672Z,0.93
2023-02-11T04:33:41.641Z,1.13
2023-02-11T04:36:30.334Z,0.75
2023-02-11T04:39:19.033Z,0.70
2023-02-11T04:42:07.821Z,1.15
2023-02-11T04:44:56.439Z,1.02
2023-02-11T04:47:45.129Z,0.90
2023-02-11T04:50:35.154Z,0.75
2023-02-11T04:53:23.953Z,1.00
2023-02-11T04:56:12.622Z,0.65
2023-02-11T04:59:01.403Z,0.77
2023-02-11T05:01:50.637Z,0.85
2023-02-11T05:04:39.219Z,0.90
2023-02-11T05:07:29.267Z,0.80
2023-02-11T05:10:18.200Z,0.80
2023-02-11T05:13:07.175Z,0.80
2023-02-11T05:15:55.916Z,0.55
2023-02-11T05:18:46.174Z,0.40
2023-02-11T05:21:34.876Z,0.60
2023-02-11T05:24:25.038Z,1.10
2023-02-11T05:27:13.768Z,0.52
2023-02-11T05:30:02.916Z,0.95
2023-02-11T05:32:51.648Z,0.70
2023-02-11T05:35:40.408Z,0.95
2023-02-11T05:38:29.358Z,0.77
2023-02-11T05:41:19.428Z,0.52
2023-02-11T05:44:08.092Z,0.50
2023-02-11T05:46:56.870Z,0.50
2023-02-11T05:49:45.798Z,0.88
2023-02-11T05:52:34.489Z,0.65
2023-02-11T05:55:23.167Z,0.77
2023-02-11T05:58:13.602Z,0.70
2023-02-11T06:01:02.224Z,0.57
2023-02-11T06:03:51.378Z,0.40
2023-02-11T06:06:40.107Z,0.47
2023-02-11T06:09:28.873Z,0.68
2023-02-11T06:12:17.506Z,0.50
2023-02-11T06:15:08.470Z,0.80
2023-02-11T06:17:57.380Z,0.50
2023-02-11T06:20:45.950Z,0.45
2023-02-11T06:23:34.520Z,0.63
2023-02-11T06:26:24.926Z,0.65
2023-02-11T06:29:13.995Z,0.52
2023-02-11T06:32:04.469Z,0.47
2023-02-11T06:34:53.090Z,0.38
2023-02-11T06:37:41.952Z,0.80
2023-02-11T06:40:30.664Z,0.47
2023-02-11T06:43:19.291Z,0.40
2023-02-11T06:46:08.132Z,0.32
2023-02-11T06:48:58.217Z,0.30
2023-02-11T06:51:46.824Z,0.43
2023-02-11T06:54:35.472Z,0.73
2023-02-11T06:57:24.080Z,0.77
2023-02-11T07:00:14.165Z,0.60
2023-02-11T07:03:02.931Z,0.50
2023-02-11T07:05:53.120Z,0.38
2023-02-11T07:08:42.955Z,0.57
2023-02-11T07:11:32.448Z,0.60
2023-02-11T07:14:21.105Z,0.50
2023-02-11T07:17:10.180Z,0.50
2023-02-11T07:19:58.833Z,0.50
2023-02-11T07:22:48.788Z,0.47
2023-02-11T07:25:38.033Z,0.40
2023-02-11T07:28:26.700Z,0.30
2023-02-11T07:31:16.563Z,0.60
2023-02-11T07:34:05.277Z,0.20
2023-02-11T07:36:53.926Z,0.35
2023-02-11T07:39:43.966Z,0.43
2023-02-11T07:42:32.664Z,0.28
2023-02-11T07:45:21.271Z,0.50
2023-02-11T07:48:09.947Z,0.30
2023-02-11T07:51:07.127Z,0.52
2023-02-11T07:53:56.646Z,0.40
2023-02-11T07:56:46.722Z,0.40
2023-02-11T07:59:35.555Z,0.70
2023-02-11T08:02:24.222Z,0.32
2023-02-11T08:05:12.916Z,0.10
2023-02-11T08:08:01.579Z,0.50
2023-02-11T08:10:50.429Z,0.20
2023-02-11T08:13:40.746Z,0.20
2023-02-11T08:16:31.247Z,0.43
2023-02-11T08:19:19.980Z,0.30
2023-02-11T08:22:08.622Z,0.30
2023-02-11T08:24:58.409Z,0.40
2023-02-11T08:27:47.105Z,0.20
2023-02-11T08:30:37.145Z,0.30
2023-02-11T08:33:25.832Z,0.30
2023-02-11T08:36:16.323Z,0.25
2023-02-11T08:39:22.475Z,0.40
2023-02-11T08:42:11.155Z,0.30
2023-02-11T08:44:59.796Z,0.40
2023-02-11T08:47:49.749Z,0.28
2023-02-11T08:50:40.697Z,0.20
2023-02-11T08:53:29.308Z,0.20
2023-02-11T08:56:18.939Z,0.30
2023-02-11T08:59:09.100Z,1.17
2023-02-11T09:01:57.981Z,0.77
2023-02-11T09:04:47.988Z,0.45
2023-02-11T09:07:36.647Z,0.22
2023-02-11T09:10:25.301Z,0.30
2023-02-11T09:13:14.073Z,0.30
2023-02-11T09:16:04.328Z,0.40
2023-02-11T09:18:53.255Z,2.15
2023-02-11T09:21:43.276Z,1.20
2023-02-11T09:24:31.938Z,1.05
2023-02-11T09:27:20.585Z,1.33
2023-02-11T09:30:10.115Z,1.08
2023-02-11T09:32:58.808Z,1.20
2023-02-11T09:35:47.480Z,1.73
2023-02-11T09:38:38.277Z,1.52
2023-02-11T09:41:39.122Z,1.10
2023-02-11T09:44:29.444Z,1.20
2023-02-11T09:47:26.573Z,1.38
2023-02-11T09:50:18.268Z,1.05
2023-02-11T09:53:11.783Z,1.13
2023-02-11T09:56:03.542Z,0.90
2023-02-11T09:58:52.260Z,0.90
2023-02-11T10:01:44.051Z,1.23
2023-02-11T10:04:43.802Z,1.05
2023-02-11T10:07:38.455Z,1.20
2023-02-11T10:10:40.671Z,1.40
2023-02-11T10:13:48.346Z,0.85
2023-02-11T10:16:49.326Z,0.90
2023-02-11T10:19:47.778Z,3.10
2023-02-11T10:22:39.770Z,3.38
2023-02-11T10:25:30.251Z,3.75
2023-02-11T10:28:20.607Z,4.22
2023-02-11T10:31:18.684Z,4.53
2023-02-11T10:34:09.187Z,3.85
2023-02-11T10:36:57.843Z,4.30
2023-02-11T10:39:46.449Z,4.55
2023-02-11T10:42:36.187Z,2.83
2023-02-11T10:45:29.900Z,2.65
2023-02-11T10:48:43.084Z,2.45
2023-02-11T10:51:34.416Z,4.90
2023-02-11T10:54:24.369Z,4.18
2023-02-11T10:57:20.839Z,4.10
2023-02-11T11:00:23.072Z,4.43
2023-02-11T11:03:19.538Z,5.05
2023-02-11T11:06:11.111Z,5.03
2023-02-11T11:09:00.050Z,4.68
2023-02-11T11:11:53.601Z,4.97
2023-02-11T11:14:42.225Z,5.28
2023-02-11T11:17:31.444Z,5.13
2023-02-11T11:20:28.461Z,4.88
2023-02-11T11:23:20.798Z,5.30
2023-02-11T11:26:11.911Z,4.35
2023-02-11T11:29:03.755Z,5.35
2023-02-11T11:31:54.268Z,4.93
2023-02-11T11:34:45.011Z,4.82
2023-02-11T11:37:35.021Z,5.32
2023-02-11T11:40:27.648Z,5.47
2023-02-11T11:43:23.057Z,5.72
2023-02-11T11:46:12.273Z,4.70
2023-02-11T11:49:06.938Z,5.15
2023-02-11T11:52:00.477Z,5.00
2023-02-11T11:54:53.812Z,5.50
2023-02-11T11:57:43.981Z,5.10
2023-02-11T12:00:37.749Z,5.03
2023-02-11T12:03:49.584Z,4.97
2023-02-11T12:06:44.096Z,5.25
2023-02-11T12:09:38.100Z,5.18
2023-02-11T12:12:36.747Z,4.82
2023-02-11T12:15:34.293Z,4.38
2023-02-11T12:18:38.677Z,5.55
2023-02-11T12:21:36.933Z,5.07
2023-02-11T12:24:39.394Z,5.47
2023-02-11T12:27:41.051Z,4.85
2023-02-11T12:30:51.984Z,5.60
2023-02-11T12:34:01.551Z,5.97
2023-02-11T12:37:02.974Z,5.30
2023-02-11T12:39:53.082Z,4.90
2023-02-11T12:43:10.232Z,5.28
2023-02-11T12:46:41.277Z,4.97
2023-02-11T12:49:40.783Z,5.80
2023-02-11T12:52:37.580Z,4.90
2023-02-11T12:55:28.596Z,4.95
2023-02-11T12:58:21.752Z,5.20
2023-02-11T13:01:14.328Z,4.57
2023-02-11T13:04:09.246Z,4.53
2023-02-11T13:07:02.284Z,4.50
2023-02-11T13:09:53.373Z,4.72
2023-02-11T13:13:03.184Z,4.90
2023-02-11T13:15:53.877Z,4.18
2023-02-11T13:18:49.452Z,5.18
2023-02-11T13:22:08.999Z,4.88
2023-02-11T13:25:01.179Z,4.63
2023-02-11T13:27:58.524Z,4.13
2023-02-11T13:30:52.232Z,5.03
2023-02-11T13:33:43.242Z,4.60
2023-02-11T13:36:34.050Z,4.70
2023-02-11T13:39:24.378Z,5.07
2023-02-11T13:42:18.056Z,4.40
2023-02-11T13:45:18.945Z,4.45
2023-02-11T13:48:10.064Z,4.45
2023-02-11T13:51:00.194Z,4.40
2023-02-11T13:53:51.465Z,3.83
2023-02-11T13:56:44.172Z,4.35
2023-02-11T13:59:49.914Z,3.75
2023-02-11T14:03:01.721Z,3.33
2023-02-11T14:06:40.749Z,4.53
2023-02-11T14:09:38.151Z,4.10
2023-02-11T14:12:33.798Z,4.10
2023-02-11T14:15:30.315Z,4.80
2023-02-11T14:18:41.270Z,3.97
2023-02-11T14:21:36.406Z,3.47
2023-02-11T14:24:51.004Z,3.30
2023-02-11T14:27:46.426Z,2.60
2023-02-11T14:30:48.224Z,2.90
2023-02-11T14:33:57.551Z,2.92
2023-02-11T14:36:59.790Z,3.22
2023-02-11T14:39:58.307Z,2.55
2023-02-11T14:42:48.462Z,2.15
2023-02-11T14:45:38.820Z,2.08
2023-02-11T14:48:30.485Z,2.10
2023-02-11T14:51:23.291Z,2.08
2023-02-11T14:54:16.982Z,2.28
2023-02-11T14:57:11.286Z,2.05
2023-02-11T15:00:03.190Z,1.88
2023-02-11T15:02:52.106Z,1.83
2023-02-11T15:05:41.153Z,2.38
2023-02-11T15:08:30.989Z,1.75
2023-02-11T15:11:22.249Z,1.27
2023-02-11T15:14:16.752Z,2.70
2023-02-11T15:17:09.941Z,1.42
2023-02-11T15:20:01.283Z,1.40
2023-02-11T15:22:52.881Z,1.67
2023-02-11T15:25:46.063Z,1.63
2023-02-11T15:28:36.780Z,1.48
2023-02-11T15:31:27.653Z,1.55
2023-02-11T15:34:35.238Z,1.60
2023-02-11T15:37:26.225Z,1.55
2023-02-11T15:40:19.657Z,1.25
2023-02-11T15:43:09.928Z,1.27
2023-02-11T15:46:01.794Z,1.40
2023-02-11T15:48:52.253Z,1.02
2023-02-11T15:51:46.870Z,1.15
2023-02-11T15:54:36.101Z,1.17
2023-02-11T15:57:25.160Z,1.48
2023-02-11T16:00:18.807Z,1.42
2023-02-11T16:03:07.515Z,1.48
2023-02-11T16:05:56.656Z,1.20
2023-02-11T16:08:58.089Z,1.25
2023-02-11T16:11:58.136Z,0.82
2023-02-11T16:14:46.991Z,1.27
2023-02-11T16:17:35.994Z,1.02
2023-02-11T16:20:24.944Z,1.23
2023-02-11T16:23:21.957Z,1.08
2023-02-11T16:26:24.163Z,1.45
2023-02-11T16:29:15.471Z,1.90
2023-02-11T16:32:10.803Z,2.58
2023-02-11T16:35:02.140Z,1.77
2023-02-11T16:37:51.522Z,2.03
2023-02-11T16:40:40.737Z,1.67
2023-02-11T16:43:33.410Z,2.20
2023-02-11T16:46:22.207Z,1.63
2023-02-11T16:49:13.337Z,1.67
2023-02-11T16:52:03.287Z,1.90
2023-02-11T16:54:52.359Z,1.48
2023-02-11T16:57:41.351Z,1.52
2023-02-11T17:00:31.473Z,1.25
2023-02-11T17:03:28.209Z,1.67
2023-02-11T17:10:02.857Z,1.33
2023-02-11T17:12:53.864Z,1.83
2023-02-11T17:15:44.905Z,1.50
2023-02-11T17:18:36.344Z,1.75
2023-02-11T17:21:29.828Z,2.15
2023-02-11T17:24:21.307Z,1.50
2023-02-11T17:27:11.906Z,1.35
2023-02-11T17:30:01.081Z,1.67
2023-02-11T17:32:51.576Z,1.80
2023-02-11T17:35:42.026Z,1.90
2023-02-11T17:38:30.641Z,1.80
2023-02-11T17:41:19.776Z,1.55
2023-02-11T17:44:09.479Z,1.70
2023-02-11T17:46:58.128Z,1.85
2023-02-11T17:49:48.185Z,2.30
2023-02-11T17:52:37.840Z,6.13
2023-02-11T17:55:26.520Z,132.30
2023-02-11T17:58:15.895Z,99.47
2023-02-11T18:01:05.282Z,90.57
2023-02-11T18:04:01.266Z,81.43
2023-02-11T18:06:53.917Z,76.03
2023-02-11T18:09:45.339Z,72.97
2023-02-11T18:12:35.443Z,68.18
2023-02-11T18:15:26.280Z,66.05
2023-02-11T18:18:18.279Z,58.53
2023-02-11T18:21:09.698Z,55.50
2023-02-11T18:24:06.535Z,52.83
2023-02-11T18:26:56.626Z,50.70
2023-02-11T18:29:47.499Z,49.20
2023-02-11T18:32:40.195Z,45.03
2023-02-11T18:35:30.291Z,45.67
2023-02-11T18:38:20.409Z,41.55
2023-02-11T18:41:13.175Z,40.20
2023-02-11T18:44:05.396Z,39.10
2023-02-11T18:46:56.462Z,35.10
2023-02-11T18:49:46.434Z,38.30
2023-02-11T18:52:37.060Z,32.03
2023-02-11T18:55:27.580Z,32.95
2023-02-11T18:58:18.355Z,129.30
2023-02-11T19:01:13.889Z,169.82
2023-02-11T19:04:04.743Z,180.82
2023-02-11T19:06:54.081Z,187.23
2023-02-11T19:09:43.253Z,168.15
2023-02-11T19:12:33.194Z,162.75
2023-02-11T19:15:23.874Z,166.38
2023-02-11T19:18:13.295Z,158.05
2023-02-11T19:21:02.681Z,157.40
2023-02-11T19:23:52.194Z,144.98
2023-02-11T19:26:41.568Z,142.00
2023-02-11T19:29:32.187Z,132.15
2023-02-11T19:32:23.105Z,129.88
2023-02-11T19:35:12.779Z,126.05
2023-02-11T19:38:02.125Z,117.60
2023-02-11T19:40:57.694Z,117.32
2023-02-11T19:43:53.667Z,109.50
2023-02-11T19:46:43.674Z,109.47
2023-02-11T19:49:34.585Z,102.70
2023-02-11T19:52:23.871Z,98.05
2023-02-11T19:55:13.413Z,93.97
2023-02-11T19:58:02.600Z,92.65
2023-02-11T20:00:51.267Z,86.57
2023-02-11T20:03:42.498Z,85.00
2023-02-11T20:06:34.009Z,78.22
2023-02-11T20:09:23.395Z,68.22
2023-02-11T20:12:13.118Z,65.43
2023-02-11T20:15:02.751Z,59.67
2023-02-11T20:17:52.006Z,61.13
2023-02-11T20:20:41.562Z,59.45
2023-02-11T20:23:33.076Z,56.47
2023-02-11T20:26:26.400Z,54.03
2023-02-11T20:29:15.706Z,52.65
2023-02-11T20:32:05.093Z,53.10
2023-02-11T20:34:54.486Z,49.85
2023-02-11T20:37:44.449Z,41.08
2023-02-11T20:40:35.282Z,40.78
2023-02-11T20:43:24.846Z,39.70
2023-02-11T20:46:14.901Z,37.60
2023-02-11T20:49:04.147Z,35.53
2023-02-11T20:51:54.117Z,33.03
2023-02-11T20:54:43.597Z,32.90
2023-02-11T20:57:35.253Z,31.80
2023-02-11T21:00:24.598Z,30.33
2023-02-11T21:03:14.014Z,29.27
2023-02-11T21:06:03.673Z,27.70
2023-02-11T21:08:53.167Z,27.00
2023-02-11T21:11:42.882Z,25.98
2023-02-11T21:14:34.372Z,24.75
2023-02-11T21:17:26.380Z,23.60
2023-02-11T21:20:15.887Z,22.80
2023-02-11T21:23:05.052Z,22.45
2023-02-11T21:25:56.442Z,22.15
2023-02-11T21:28:48.784Z,22.50
2023-02-11T21:31:40.293Z,20.38
2023-02-11T21:34:29.888Z,20.48
2023-02-11T21:37:19.148Z,20.48
2023-02-11T21:40:09.761Z,19.40
2023-02-11T21:42:59.315Z,18.27
2023-02-11T21:45:49.977Z,17.17
2023-02-11T21:48:40.770Z,17.90
2023-02-11T21:51:30.221Z,17.25
2023-02-11T21:54:20.250Z,17.02
2023-02-11T21:57:09.751Z,16.80
2023-02-11T21:59:59.006Z,15.02
2023-02-11T22:02:49.898Z,15.70
2023-02-11T22:05:43.395Z,15.10
2023-02-11T22:08:33.073Z,13.63
2023-02-11T22:11:21.919Z,13.15
2023-02-11T22:14:10.684Z,13.68
2023-02-11T22:16:59.395Z,12.88
2023-02-11T22:19:48.245Z,12.48
2023-02-11T22:22:38.303Z,11.82
2023-02-11T22:25:27.155Z,11.38
2023-02-11T22:28:15.940Z,11.55
2023-02-11T22:31:04.923Z,11.07
2023-02-11T22:33:54.084Z,10.45
2023-02-11T22:36:45.414Z,10.32
2023-02-11T22:39:35.751Z,11.52
2023-02-11T22:42:24.791Z,10.30
2023-02-11T22:45:13.515Z,9.63
2023-02-11T22:48:04.606Z,9.80
2023-02-11T22:50:53.266Z,8.80
2023-02-11T22:53:43.672Z,9.25
2023-02-11T22:56:35.040Z,9.40
2023-02-11T22:59:23.896Z,8.20
2023-02-11T23:02:12.557Z,8.07
2023-02-11T23:05:01.391Z,7.70
2023-02-11T23:07:50.482Z,8.52
2023-02-11T23:10:41.647Z,8.30
2023-02-11T23:13:32.429Z,7.72
2023-02-11T23:16:24.210Z,7.40
2023-02-11T23:19:13.019Z,8.10
2023-02-11T23:22:03.412Z,6.32
2023-02-11T23:24:52.066Z,7.07
2023-02-11T23:27:40.673Z,7.50
2023-02-11T23:30:30.993Z,6.78
2023-02-11T23:33:19.658Z,6.25
2023-02-11T23:36:09.125Z,7.03
2023-02-11T23:38:57.754Z,5.30
2023-02-11T23:41:46.838Z,5.82
2023-02-11T23:44:35.604Z,5.40
2023-02-11T23:47:25.649Z,5.32
2023-02-11T23:50:14.345Z,5.78
2023-02-11T23:53:05.333Z,4.65
2023-02-11T23:55:54.271Z,5.22
2023-02-11T23:58:44.756Z,4.95
